sensor_id;sensor_type;location;lat;lon;timestamp;P1;durP1;ratioP1;P2;durP2;ratioP2
84735;SDS011;74966;47.920;13.802;2024-02-26T11:16:54;3.4;;;4.0;;
84735;SDS011;74966;47.920;13.802;2024-02-26T11:21:53;3.9;;;4.4;;
84735;SDS011;74966;47.920;13.802;2024-02-26T11:26:54;3.4;;;3.8;;
84735;SDS011;74966;47.920;13.802;2024-02-26T11:31:54;3.7;;;4.1;;
84735;SDS011;74966;47.920;13.802;2024-02-26T11:36:55;2.7;;;2.9;;
84735;SDS011;74966;47.920;13.802;2024-02-26T11:41:53;2.5;;;2.7;;
84735;SDS011;74966;47.920;13.802;2024-02-26T11:46:53;3.3;;;3.6;;
84735;SDS011;74966;47.920;13.802;2024-02-26T11:51:54;3.2;;;3.4;;
84735;SDS011;74966;47.920;13.802;2024-02-26T11:56:54;3.3;;;3.6;;
84735;SDS011;74966;47.920;13.802;2024-02-26T12:01:53;2.9;;;3.1;;
84735;SDS011;74966;47.920;13.802;2024-02-26T12:06:55;3.4;;;3.6;;
84735;SDS011;74966;47.920;13.802;2024-02-26T12:11:53;2.9;;;3.1;;
84735;SDS011;74966;47.920;13.802;2024-02-26T12:16:51;2.5;;;2.6;;
84735;SDS011;74966;47.920;13.802;2024-02-26T12:21:52;2.9;;;3.1;;
84735;SDS011;74966;47.920;13.802;2024-02-26T12:26:51;2.7;;;2.8;;
84735;SDS011;74966;47.920;13.802;2024-02-26T12:34:57;2.5;;;2.8;;
84735;SDS011;74966;47.920;13.802;2024-02-26T12:39:57;2.9;;;3.2;;
84735;SDS011;74966;47.920;13.802;2024-02-26T12:44:57;3.0;;;3.2;;
84735;SDS011;74966;47.920;13.802;2024-02-26T12:49:57;2.6;;;2.8;;
84735;SDS011;74966;47.920;13.802;2024-02-26T12:54:57;2.5;;;2.6;;
84735;SDS011;74966;47.920;13.802;2024-02-26T12:59:59;2.6;;;2.7;;
84735;SDS011;74966;47.920;13.802;2024-02-26T13:04:59;2.5;;;2.6;;
84735;SDS011;74966;47.920;13.802;2024-02-26T13:09:59;2.2;;;2.3;;
84735;SDS011;74966;47.920;13.802;2024-02-26T13:15:00;2.6;;;2.8;;
84735;SDS011;74966;47.920;13.802;2024-02-26T13:19:59;3.1;;;3.4;;
84735;SDS011;74966;47.920;13.802;2024-02-26T13:24:59;2.5;;;2.7;;
84735;SDS011;74966;47.920;13.802;2024-02-26T13:30:07;2.9;;;3.1;;
84735;SDS011;74966;47.920;13.802;2024-02-26T13:35:05;2.5;;;2.6;;
84735;SDS011;74966;47.920;13.802;2024-02-26T13:39:59;2.4;;;2.5;;
84735;SDS011;74966;47.920;13.802;2024-02-26T13:44:57;2.3;;;2.3;;
84735;SDS011;74966;47.920;13.802;2024-02-26T13:49:57;2.4;;;2.5;;
84735;SDS011;74966;47.920;13.802;2024-02-26T13:54:59;2.2;;;2.3;;
84735;SDS011;74966;47.920;13.802;2024-02-26T13:59:59;2.3;;;2.5;;
84735;SDS011;74966;47.920;13.802;2024-02-26T14:04:59;2.5;;;2.6;;
84735;SDS011;74966;47.920;13.802;2024-02-26T14:09:59;2.1;;;2.1;;
84735;SDS011;74966;47.920;13.802;2024-02-26T14:14:59;2.6;;;2.7;;
84735;SDS011;74966;47.920;13.802;2024-02-26T14:19:59;1.8;;;1.8;;
84735;SDS011;74966;47.920;13.802;2024-02-26T14:24:59;2.2;;;2.3;;
84735;SDS011;74966;47.920;13.802;2024-02-26T14:29:59;2.4;;;2.6;;
84735;SDS011;74966;47.920;13.802;2024-02-26T14:34:59;2.2;;;2.3;;
84735;SDS011;74966;47.920;13.802;2024-02-26T14:39:59;1.9;;;1.9;;
84735;SDS011;74966;47.920;13.802;2024-02-26T14:44:59;1.8;;;1.9;;
84735;SDS011;74966;47.920;13.802;2024-02-26T14:50:00;2.9;;;3.2;;
84735;SDS011;74966;47.920;13.802;2024-02-26T14:54:59;2.9;;;3.3;;
84735;SDS011;74966;47.920;13.802;2024-02-26T14:59:59;2.3;;;2.7;;
84735;SDS011;74966;47.920;13.802;2024-02-26T15:04:59;2.8;;;3.2;;
84735;SDS011;74966;47.920;13.802;2024-02-26T15:09:59;2.7;;;3.2;;
84735;SDS011;74966;47.920;13.802;2024-02-26T15:14:57;2.2;;;2.5;;
84735;SDS011;74966;47.920;13.802;2024-02-26T15:19:57;2.5;;;2.9;;
84735;SDS011;74966;47.920;13.802;2024-02-26T15:24:57;2.7;;;3.1;;
84735;SDS011;74966;47.920;13.802;2024-02-26T15:29:57;2.4;;;2.7;;
84735;SDS011;74966;47.920;13.802;2024-02-26T15:34:59;2.8;;;3.1;;
84735;SDS011;74966;47.920;13.802;2024-02-26T15:39:52;2.3;;;2.6;;
84735;SDS011;74966;47.920;13.802;2024-02-26T15:44:52;3.0;;;3.3;;
84735;SDS011;74966;47.920;13.802;2024-02-26T15:49:52;2.5;;;2.7;;
84735;SDS011;74966;47.920;13.802;2024-02-26T15:54:52;2.4;;;2.7;;
84735;SDS011;74966;47.920;13.802;2024-02-26T15:59:52;2.9;;;3.3;;
84735;SDS011;74966;47.920;13.802;2024-02-26T16:04:52;2.4;;;2.8;;
84735;SDS011;74966;47.920;13.802;2024-02-26T16:09:52;2.2;;;2.4;;
84735;SDS011;74966;47.920;13.802;2024-02-26T16:14:52;1.9;;;2.1;;
84735;SDS011;74966;47.920;13.802;2024-02-26T16:19:52;2.1;;;2.3;;
84735;SDS011;74966;47.920;13.802;2024-02-26T16:24:52;2.3;;;2.6;;
84735;SDS011;74966;47.920;13.802;2024-02-26T16:29:52;2.0;;;2.2;;
84735;SDS011;74966;47.920;13.802;2024-02-26T16:34:52;2.6;;;2.9;;
84735;SDS011;74966;47.920;13.802;2024-02-26T16:39:52;2.2;;;2.5;;
84735;SDS011;74966;47.920;13.802;2024-02-26T16:44:52;1.9;;;2.1;;
84735;SDS011;74966;47.920;13.802;2024-02-26T16:49:52;1.7;;;1.9;;
84735;SDS011;74966;47.920;13.802;2024-02-26T16:54:52;1.8;;;2.0;;
84735;SDS011;74966;47.920;13.802;2024-02-26T16:59:52;2.1;;;2.3;;
84735;SDS011;74966;47.920;13.802;2024-02-26T17:04:52;1.9;;;2.0;;
84735;SDS011;74966;47.920;13.802;2024-02-26T17:09:52;1.7;;;1.8;;
84735;SDS011;74966;47.920;13.802;2024-02-26T17:14:52;1.5;;;1.5;;
84735;SDS011;74966;47.920;13.802;2024-02-26T17:19:52;2.3;;;2.4;;
84735;SDS011;74966;47.920;13.802;2024-02-26T17:24:52;1.7;;;1.8;;
84735;SDS011;74966;47.920;13.802;2024-02-26T17:29:52;2.1;;;2.2;;
84735;SDS011;74966;47.920;13.802;2024-02-26T17:34:52;2.1;;;2.2;;
84735;SDS011;74966;47.920;13.802;2024-02-26T17:39:52;2.1;;;2.2;;
84735;SDS011;74966;47.920;13.802;2024-02-26T17:44:52;1.8;;;1.8;;
84735;SDS011;74966;47.920;13.802;2024-02-26T17:49:52;2.4;;;2.4;;
84735;SDS011;74966;47.920;13.802;2024-02-26T17:54:52;2.5;;;2.5;;
